Home > Products > Valid Products > MTR

000
SAUS45 KABQ 251054
MTRTCS
METAR KTCS 251053Z AUTO 29007KT 10SM CLR 22/07 A3015 RMK AO2 SLP114
T02170067 TSNO





000
SAUS45 KABQ 251054
MTRCQC
METAR KCQC 251053Z AUTO 24011KT 10SM CLR 18/04 A3031 RMK AO2 SLP150
T01780039





000
SAUS45 KABQ 251052
MTRABQ
METAR KABQ 251052Z 12004KT 10SM BKN110 23/06 A3020 RMK AO2 SLP128
T02280056





000
SAUS45 KABQ 250954
MTRTCS
METAR KTCS 250953Z AUTO 30006KT 10SM CLR 23/06 A3016 RMK AO2 SLP114
T02280061 TSNO





000
SAUS45 KABQ 250954
MTRCQC
METAR KCQC 250953Z AUTO 23011KT 10SM CLR 18/04 A3030 RMK AO2 SLP146
T01830044





000
SAUS45 KABQ 250952
MTRABQ
METAR KABQ 250952Z 14007KT 10SM BKN110 24/04 A3019 RMK AO2 SLP125
T02390044





000
SAUS45 KABQ 250854
MTRTCS
METAR KTCS 250853Z AUTO 25004KT 10SM CLR 23/06 A3016 RMK AO2 SLP115
T02280061 58003 TSNO





000
SAUS45 KABQ 250854
MTRCQC
METAR KCQC 250853Z AUTO 23012KT 10SM CLR 19/04 A3031 RMK AO2 SLP148
T01890044 58007





000
SAUS45 KABQ 250852
MTRABQ
METAR KABQ 250852Z 14006KT 10SM CLR 23/06 A3020 RMK AO2 SLP128
T02280056 58002





000
SAUS45 KABQ 250754
MTRTCS
METAR KTCS 250753Z AUTO 18005KT 10SM CLR 23/07 A3018 RMK AO2 SLP123
T02280067 TSNO





000
SAUS45 KABQ 250754
MTRCQC
METAR KCQC 250753Z AUTO 22012KT 10SM CLR 19/04 A3033 RMK AO2 SLP154
T01940044





000
SAUS45 KABQ 250752
MTRABQ
METAR KABQ 250752Z 16008KT 10SM FEW120 25/04 A3021 RMK AO2 SLP131
T02500044





000
SAUS45 KABQ 250654
MTRCQC
METAR KCQC 250653Z AUTO 22013KT 10SM CLR 20/03 A3034 RMK AO2 SLP157
T02000033 403000139





000
SAUS45 KABQ 250654
MTRTCS
METAR KTCS 250653Z AUTO 28005KT 10SM CLR 24/06 A3018 RMK AO2 SLP123
T02440061 403500194 TSNO





000
SAUS45 KABQ 250652
MTRABQ
METAR KABQ 250652Z 16007KT 10SM CLR 25/04 A3022 RMK AO2 SLP133
T02500044 403330206





000
SAUS45 KABQ 250558 COR
MTRCQC
METAR KCQC 250553Z AUTO 21011KT 10SM CLR 18/07 A3034 RMK AO2 SLP163
T01830067 10289 20178 51007





000
SAUS45 KABQ 250556 COR
MTRCQC
METAR KCQC 250553Z AUTO 21011KT 10SM CLR 18/07 A3034 RMK AO2 SLP163
T01830067 10289 20178 51007





000
SAUS45 KABQ 250555 COR
MTRCQC
METAR KCQC 250553Z AUTO 21011KT 10SM CLR 18/07 A3034 RMK AO2 SLP163
T01830067 10289 20178 51007





000
SAUS45 KABQ 250554
MTRCQC
METAR KCQC 250553Z AUTO 21011KT 10SM CLR 18/07 A3034 RMK AO2 SLP163
T01830067 10289 20178 51007





000
SAUS45 KABQ 250554
MTRTCS
METAR KTCS 250553Z AUTO 28007KT 10SM CLR 25/05 A3017 RMK AO2 SLP121
T02500050 10339 20250 51013 TSNO





000
SAUS45 KABQ 250552
MTRABQ
METAR KABQ 250552Z 16009KT 10SM FEW250 26/04 A3021 RMK AO2 SLP131
T02610044 10328 20256 53011





000
SAUS45 KABQ 250454
MTRTCS
METAR KTCS 250453Z AUTO 27004KT 10SM CLR 27/04 A3017 RMK AO2 SLP118
T02670039 TSNO





000
SAUS45 KABQ 250454
MTRCQC
METAR KCQC 250453Z AUTO 20008KT 10SM CLR 19/06 A3033 RMK AO2 SLP163
T01890056





000
SAUS45 KABQ 250452
MTRABQ
METAR KABQ 250452Z 12006KT 10SM FEW250 26/06 A3019 RMK AO2 SLP127
T02610061





000
SAUS45 KABQ 250354
MTRCQC
METAR KCQC 250353Z AUTO 21009KT 10SM BKN100 20/06 A3032 RMK AO2
SLP157 T02000056





000
SAUS45 KABQ 250354
MTRTCS
METAR KTCS 250353Z AUTO 25005KT 10SM CLR 28/04 A3015 RMK AO2 SLP113
T02780039 TSNO





000
SAUS45 KABQ 250353
MTRABQ
METAR KABQ 250352Z 15006KT 10SM FEW130 FEW250 27/07 A3018 RMK AO2
SLP124 T02720067





000
SAUS45 KABQ 250254
MTRTCS
METAR KTCS 250253Z AUTO 21006KT 10SM CLR 31/04 A3013 RMK AO2 SLP104
T03060039 53002 TSNO





000
SAUS45 KABQ 250254
MTRCQC
METAR KCQC 250253Z AUTO 20008KT 10SM FEW095 21/04 A3031 RMK AO2
SLP155 T02110044 53004





000
SAUS45 KABQ 250253
MTRABQ
METAR KABQ 250252Z 20008KT 10SM FEW130 FEW250 30/05 A3017 RMK AO2
SLP118 T03000050 53002





000
SAUS45 KABQ 250154
MTRTCS
METAR KTCS 250153Z AUTO 23010KT 10SM CLR 32/04 A3011 RMK AO2 SLP100
T03220039 TSNO





000
SAUS45 KABQ 250154
MTRCQC
METAR KCQC 250153Z AUTO 22008KT 10SM CLR 26/04 A3029 RMK AO2 SLP144
T02560044





000
SAUS45 KABQ 250153
MTRABQ
METAR KABQ 250152Z 20008KT 10SM FEW130 FEW250 31/03 A3015 RMK AO2
SLP114 T03110033





000
SAUS45 KABQ 250055
MTRCQC
METAR KCQC 250053Z AUTO 21015KT 10SM CLR 28/04 A3028 RMK AO2 SLP148
T02780039





000
SAUS45 KABQ 250054
MTRTCS
METAR KTCS 250053Z AUTO 17011KT 10SM CLR 33/04 A3011 RMK AO2 SLP103
T03330039 TSNO





000
SAUS45 KABQ 250053
MTRABQ
METAR KABQ 250052Z 21011KT 10SM FEW110 SCT230 32/03 A3015 RMK AO2
SLP114 T03220033





000
SAUS45 KABQ 242354
MTRCQC
METAR KCQC 242353Z AUTO 19012G20KT 10SM CLR 29/04 A3029 RMK AO2
SLP149 T02890044 10300 20261 58016





000
SAUS45 KABQ 242354
MTRTCS
METAR KTCS 242353Z AUTO 19011G19KT 10SM FEW110 34/04 A3012 RMK AO2
SLP105 T03390044 10350 20300 56020 TSNO





000
SAUS45 KABQ 242352
MTRABQ
METAR KABQ 242352Z 21011KT 10SM FEW110 SCT230 33/04 A3016 RMK AO2
SLP117 T03280044 10333 20294 57021





000
SAUS45 KABQ 242254
MTRTCS
METAR KTCS 242253Z AUTO 17008KT 10SM CLR 34/06 A3015 RMK AO2 SLP114
T03390056 TSNO





000
SAUS45 KABQ 242254
MTRCQC
METAR KCQC 242253Z AUTO 19008G19KT 10SM SCT100 29/03 A3031 RMK AO2
SLP154 T02890033





000
SAUS45 KABQ 242253
MTRABQ
METAR KABQ 242252Z 22009KT 10SM FEW110 FEW230 33/03 A3019 RMK AO2
SLP123 T03280033





000
SAUS45 KABQ 242154
MTRCQC
METAR KCQC 242153Z AUTO 20006G18KT 10SM FEW090 29/03 A3034 RMK AO2
SLP162 T02890033





000
SAUS45 KABQ 242154
MTRTCS
METAR KTCS 242153Z AUTO 25011G15KT 10SM FEW110 34/04 A3016 RMK AO2
SLP118 T03390039 TSNO





000
SAUS45 KABQ 242153
MTRABQ
METAR KABQ 242152Z 24009KT 10SM FEW110 FEW230 33/05 A3021 RMK AO2
SLP133 T03280050





000
SAUS45 KABQ 242054
MTRCQC
METAR KCQC 242053Z AUTO 22009KT 190V270 10SM SCT090 30/04 A3035 RMK
AO2 SLP166 T03000039 56015





000
SAUS45 KABQ 242054
MTRTCS
METAR KTCS 242053Z AUTO 17013G19KT 10SM SCT100 34/06 A3019 RMK AO2
SLP125 T03440061 56022 TSNO





000
SAUS45 KABQ 242053
MTRABQ
METAR KABQ 242052Z VRB05KT 10SM FEW110 FEW230 32/03 A3024 RMK AO2
SLP140 T03220033 56020





000
SAUS45 KABQ 241954
MTRTCS
METAR KTCS 241953Z AUTO 10SM FEW090 33/08 A3020 RMK AO2 SLP132
T03280083 TSNO





000
SAUS45 KABQ 241954
MTRCQC
METAR KCQC 241953Z AUTO 22006G20KT 10SM CLR 28/04 A3037 RMK AO2
SLP175 T02830044





000
SAUS45 KABQ 241953
MTRABQ
METAR KABQ 241952Z 18012KT 10SM FEW100 32/07 A3025 RMK AO2 SLP146
T03170067





000
SAUS45 KABQ 241854
MTRTCS
METAR KTCS 241853Z AUTO 22007G16KT 180V250 10SM CLR 31/08 A3023 RMK
AO2 SLP142 T03110083 TSNO





000
SAUS45 KABQ 241854
MTRCQC
METAR KCQC 241853Z AUTO 21013KT 10SM CLR 28/04 A3039 RMK AO2 SLP180
T02830039





000
SAUS45 KABQ 241853
MTRABQ
METAR KABQ 241852Z 24009KT 10SM FEW090 31/07 A3028 RMK AO2 SLP155
T03110072





000
SAUS45 KABQ 241754
MTRCQC
METAR KCQC 241753Z AUTO 24013KT 10SM CLR 27/07 A3041 RMK AO2 SLP189
T02720067 10272 20139 58008





000
SAUS45 KABQ 241754
MTRTCS
METAR KTCS 241753Z AUTO 18010KT 10SM CLR 31/09 A3026 RMK AO2 SLP153
60000 T03060094 10306 20194 58006 TSNO





000
SAUS45 KABQ 241753
MTRABQ
METAR KABQ 241752Z VRB04KT 10SM FEW090 29/08 A3030 RMK AO2 SLP164
T02940083 10294 20206 58011





000
SAUS45 KABQ 241654
MTRCQC
METAR KCQC 241653Z AUTO 24009G16KT 10SM CLR 26/07 A3043 RMK AO2
SLP196 T02560067





000
SAUS45 KABQ 241654
MTRTCS
METAR KTCS 241653Z AUTO 14006KT 10SM CLR 30/09 A3028 RMK AO2 SLP158
T03000094 TSNO





000
SAUS45 KABQ 241653
MTRABQ
METAR KABQ 241652Z 19007KT 10SM FEW090 FEW250 28/09 A3032 RMK AO2
SLP172 T02830089





000
SAUS45 KABQ 241554
MTRTCS
METAR KTCS 241553Z AUTO 00000KT 10SM CLR 28/08 A3028 RMK AO2 SLP159
T02830083 TSNO





000
SAUS45 KABQ 241554
MTRCQC
METAR KCQC 241553Z AUTO 26008KT 10SM CLR 25/07 A3043 RMK AO2 SLP196
T02500072





000
SAUS45 KABQ 241553
MTRABQ
METAR KABQ 241552Z 22004KT 10SM FEW080 FEW250 27/09 A3033 RMK AO2
SLP179 T02670094





000
SAUS45 KABQ 241454
MTRTCS
METAR KTCS 241453Z AUTO 00000KT 10SM CLR 26/11 A3028 RMK AO2 SLP162
P0000 60000 T02560111 51010 TSNO $





000
SAUS45 KABQ 241454
MTRCQC
METAR KCQC 241453Z AUTO 25008KT 10SM CLR 23/08 A3044 RMK AO2 SLP200
T02330083 51005





000
SAUS45 KABQ 241453
MTRABQ
METAR KABQ 241452Z 01003KT 10SM FEW250 25/11 A3034 RMK AO2 SLP183
T02500106 51007





000
SAUS45 KABQ 241354
MTRCQC
METAR KCQC 241353Z AUTO 23007KT 10SM CLR 21/09 A3043 RMK AO2 SLP198
T02110094





000
SAUS45 KABQ 241354
MTRTCS
METAR KTCS 241353Z AUTO 00000KT 10SM -RA CLR 23/12 A3028 RMK AO2
SLP165 P0000 T02280117 TSNO





000
SAUS45 KABQ 241353
MTRABQ
METAR KABQ 241352Z 02005KT 10SM SCT250 23/12 A3034 RMK AO2 SLP181
T02280117





000
SAUS45 KABQ 241254
MTRCQC
METAR KCQC 241253Z AUTO 25007KT 10SM CLR 16/09 A3043 RMK AO2 SLP206
T01560089





000
SAUS45 KABQ 241254
MTRTCS
METAR KTCS 241253Z AUTO 31005KT 10SM -RA CLR 20/12 A3026 RMK AO2
SLP159 P0000 T02000117 TSNO





000
SAUS45 KABQ 241253
MTRABQ
METAR KABQ 241252Z 33006KT 10SM FEW095 SCT250 21/12 A3032 RMK AO2
SLP176 T02060117





000
SAUS45 KABQ 241154
MTRCQC
METAR KCQC 241153Z AUTO 21010KT 10SM CLR 15/09 A3042 RMK AO2 SLP200
T01500089 10178 20150 56004





000
SAUS45 KABQ 241154
MTRTCS
METAR KTCS 241153Z AUTO 33004KT 10SM -RA CLR 20/12 A3025 RMK AO2
SLP157 P0000 60000 70003 T02000122 10250 20194 53003 TSNO





000
SAUS45 KABQ 241153
MTRABQ
METAR KABQ 241152Z 34004KT 10SM FEW050 FEW095 21/12 A3032 RMK AO2
SLP174 T02110122 10256 20211 53002





000
SAUS45 KABQ 241054
MTRTCS
METAR KTCS 241053Z AUTO 30005KT 10SM -RA CLR 20/13 A3024 RMK AO2
SLP155 P0000 T02000128 TSNO





000
SAUS45 KABQ 241054
MTRCQC
METAR KCQC 241053Z AUTO 20010KT 10SM CLR 16/09 A3042 RMK AO2 SLP199
T01610089





000
SAUS45 KABQ 241053
MTRABQ
METAR KABQ 241052Z 02005KT 10SM SCT095 22/12 A3031 RMK AO2 SLP171
T02220117





000
SAUS45 KABQ 240954
MTRCQC
METAR KCQC 240953Z AUTO 18011KT 10SM CLR 17/08 A3042 RMK AO2 SLP197
T01670083





000
SAUS45 KABQ 240954
MTRTCS
METAR KTCS 240953Z AUTO 32005KT 10SM -RA CLR 21/12 A3024 RMK AO2
SLP155 P0000 T02110122 TSNO





000
SAUS45 KABQ 240953
MTRABQ
METAR KABQ 240952Z 36004KT 10SM SCT100 23/12 A3030 RMK AO2 SLP168
T02280117





000
SAUS45 KABQ 240854
MTRCQC
METAR KCQC 240853Z AUTO 18010KT 10SM CLR 17/08 A3043 RMK AO2 SLP202
T01670083 58009





000
SAUS45 KABQ 240854
MTRTCS
METAR KTCS 240853Z AUTO 32006KT 10SM -RA CLR 22/13 A3024 RMK AO2
SLP149 P0000 60000 T02170128 58007 TSNO





000
SAUS45 KABQ 240853
MTRABQ
METAR KABQ 240852Z 00000KT 10SM SCT170 24/09 A3031 RMK AO2 SLP167
T02440089 58004





000
SAUS45 KABQ 240755
MTRCQC
METAR KCQC 240753Z AUTO 17009KT 10SM CLR 17/08 A3045 RMK AO2 SLP205
T01670083





000
SAUS45 KABQ 240754
MTRTCS
METAR KTCS 240753Z AUTO 32004KT 10SM -RA CLR 23/12 A3025 RMK AO2
RAB29 SLP151 P0000 T02280117 TSNO





000
SAUS45 KABQ 240753
MTRABQ
METAR KABQ 240752Z 11005KT 10SM FEW170 24/09 A3031 RMK AO2 SLP172
T02390094





000
SAUS45 KABQ 240654
MTRCQC
METAR KCQC 240653Z AUTO 13008KT 10SM CLR 17/09 A3046 RMK AO2 SLP208
T01720094 402890150





000
SAUS45 KABQ 240654
MTRTCS
METAR KTCS 240653Z AUTO 00000KT 10SM SCT110 24/08 A3026 RMK AO2
RAE45 SLP153 P0000 T02390083 403330206 TSNO





000
SAUS45 KABQ 240653
MTRABQ
METAR KABQ 240652Z 18006KT 10SM FEW170 25/09 A3032 RMK AO2 SLP175
T02500094 403170206





000
SAUS45 KABQ 240554
MTRCQC
METAR KCQC 240553Z AUTO 12006KT 10SM CLR 17/09 A3047 RMK AO2 SLP214
T01720094 10256 20172 51008





000
SAUS45 KABQ 240554
MTRTCS
METAR KTCS 240553Z AUTO 21003KT 10SM -RA CLR 24/08 A3026 RMK AO2
SLP152 P0000 60000 T02440083 10311 20244 51014 TSNO





000
SAUS45 KABQ 240553
MTRABQ
METAR KABQ 240552Z 14008KT 10SM FEW250 26/09 A3032 RMK AO2 SLP172
T02560089 10317 20244 53012





000
SAUS45 KABQ 240454
MTRCQC
METAR KCQC 240453Z AUTO 14007KT 10SM CLR 19/09 A3046 RMK AO2 SLP207
T01890094





000
SAUS45 KABQ 240454
MTRTCS
METAR KTCS 240453Z AUTO 11005KT 10SM -RA BKN110 26/11 A3025 RMK AO2
SLP150 P0000 T02560106 TSNO





000
SAUS45 KABQ 240453
MTRABQ
METAR KABQ 240452Z 17007KT 10SM FEW130 FEW250 26/09 A3031 RMK AO2
SLP172 T02560089





000
SAUS45 KABQ 240354
MTRCQC
METAR KCQC 240353Z AUTO 15006KT 10SM CLR 20/10 A3045 RMK AO2 SLP207
T02000100





000
SAUS45 KABQ 240354
MTRTCS
METAR KTCS 240353Z AUTO 11004KT 10SM -RA BKN110 27/12 A3023 RMK AO2
SLP142 P0000 T02670117 TSNO





000
SAUS45 KABQ 240353
MTRABQ
METAR KABQ 240352Z 13007KT 10SM FEW120 FEW250 26/11 A3029 RMK AO2
SLP166 T02560106





000
SAUS45 KABQ 240254
MTRCQC
METAR KCQC 240253Z AUTO 17006KT 10SM CLR 21/09 A3044 RMK AO2 SLP206
T02060094 53003





000
SAUS45 KABQ 240254
MTRTCS
METAR KTCS 240253Z AUTO 02004KT 10SM -RA CLR 27/12 A3021 RMK AO2
RAE0157B16 SLP138 P0000 60000 T02720122 53001 TSNO





000
SAUS45 KABQ 240253
MTRABQ
METAR KABQ 240252Z 01008KT 10SM FEW120 SCT250 27/14 A3028 RMK AO2
SLP165 T02670139 53004





000
SAUS45 KABQ 240154
MTRCQC
METAR KCQC 240153Z AUTO 14007KT 10SM CLR 23/09 A3043 RMK AO2 SLP199
T02280089





000
SAUS45 KABQ 240154
MTRTCS
METAR KTCS 240153Z AUTO 00000KT 10SM -RA CLR 28/14 A3021 RMK AO2
SLP138 P0000 T02830139 TSNO





000
SAUS45 KABQ 240153
MTRABQ
METAR KABQ 240152Z 35006KT 10SM FEW100 FEW140 BKN250 29/12 A3027 RMK
AO2 SLP159 T02890122





000
SAUS45 KABQ 240054
MTRCQC
METAR KCQC 240053Z AUTO 12009KT 10SM CLR 24/08 A3042 RMK AO2 SLP199
T02440083





000
SAUS45 KABQ 240054
MTRTCS
METAR KTCS 240053Z AUTO 36004KT 10SM -RA CLR 31/11 A3020 RMK AO2
SLP137 P0000 T03060111 TSNO





000
SAUS45 KABQ 240053
MTRABQ
METAR KABQ 240052Z 15007KT 10SM FEW100 SCT140 BKN250 32/09 A3027 RMK
AO2 SLP159 T03170089





000
SAUS45 KABQ 232354
MTRTCS
METAR KTCS 232353Z AUTO 33005KT 10SM -RA BKN100 29/14 A3021 RMK AO2
SLP141 P0000 60003 T02940144 10333 20267 56015 TSNO





000
SAUS45 KABQ 232354
MTRCQC
METAR KCQC 232353Z AUTO 13009G16KT 10SM CLR 26/08 A3042 RMK AO2
SLP201 T02560083 10289 20239 56012





000
SAUS45 KABQ 232352
MTRABQ
METAR KABQ 232352Z 33005KT 10SM FEW100 SCT140 BKN250 31/12 A3027 RMK
AO2 SLP158 60000 T03110117 10317 20278 58012





000
SAUS45 KABQ 232254
MTRCQC
METAR KCQC 232253Z AUTO 11012G16KT 10SM CLR 26/09 A3044 RMK AO2
SLP207 T02560089





000
SAUS45 KABQ 232254
MTRTCS
METAR KTCS 232253Z AUTO 30005KT 10SM -RA SCT100 28/17 A3021 RMK AO2
RAE21B43 SLP142 P0003 T02830172 TSNO





000
SAUS45 KABQ 232252
MTRABQ
METAR KABQ 232252Z 20006KT 10SM BKN100 BKN250 31/11 A3029 RMK AO2
LTG DSNT N SLP166 CB DSNT N T03060106





000
SAUS45 KABQ 232154
MTRCQC
METAR KCQC 232153Z AUTO 11012KT 10SM CLR 26/04 A3045 RMK AO2 SLP207
T02610044





000
SAUS45 KABQ 232154
MTRTCS
METAR KTCS 232153Z AUTO 28008KT 10SM -RA FEW090 28/17 A3023 RMK AO2
RAB07 SLP151 P0000 T02780167 TSNO





000
SAUS45 KABQ 232152
MTRABQ
METAR KABQ 232152Z 20012KT 10SM FEW060 SCT120TCU SCT160 BKN250 31/12
A3029 RMK AO2 PK WND 19026/2117 LTG DSNT N AND NE SLP166 CB DSNT
N-NE TCU N-E SHRA DSNT N-NE T03060122





000
SAUS45 KABQ 232137
MTRABQ
SPECI KABQ 232137Z 21013KT 10SM FEW060 SCT120CB BKN160 BKN250 31/12
A3030 RMK AO2 PK WND 19026/2117 LTG DSNT N AND NE CB S-SW MOV NW
VCSH S-SW SHRA DSNT NE T03060117





000
SAUS45 KABQ 232110
MTRABQ
SPECI KABQ 232110Z 16014KT 10SM VCTS FEW060 SCT120CB BKN160 BKN250
31/12 A3031 RMK AO2 LTG DSNT NE TS S-SW MOV W VCSH S-SW SHRA DSNT NE
T03060117





000
SAUS45 KABQ 232054
MTRTCS
METAR KTCS 232053Z AUTO 27010KT 10SM FEW080 30/13 A3026 RMK AO2
RAB18E27 SLP156 P0000 60000 T03000133 56015 TSNO





000
SAUS45 KABQ 232054
MTRCQC
METAR KCQC 232053Z AUTO 08012KT 10SM FEW080 25/09 A3047 RMK AO2
SLP216 T02500089 58008





000
SAUS45 KABQ 232052
MTRABQ
METAR KABQ 232052Z 21003KT 10SM FEW060 SCT120TCU BKN160 BKN250 31/11
A3031 RMK AO2 SLP171 CB DSNT S AND NW-N TCU ALQDS SHRA DSNT SE-S
60000 T03110111 58018





000
SAUS45 KABQ 231954
MTRCQC
METAR KCQC 231953Z AUTO 14013G18KT 10SM SCT070 BKN090 BKN110 27/09
A3048 RMK AO2 SLP214 T02720089





000
SAUS45 KABQ 231954
MTRTCS
METAR KTCS 231953Z AUTO 20006KT 10SM BKN080 32/12 A3026 RMK AO2
SLP152 T03170117 TSNO





000
SAUS45 KABQ 231952
MTRABQ
METAR KABQ 231952Z 17005KT 10SM FEW060 BKN110TCU BKN170 29/12 A3034
RMK AO2 WSHFT 1849 LTG DSNT S RAE00 SLP183 CB DSNT E-S TCU
N-OHD-DSNT S ACC ALQDS SHRA DSNT SE-S P0000 T02890122





000
SAUS45 KABQ 231904
MTRABQ
SPECI KABQ 231904Z 19010G20KT 10SM FEW060 SCT110TCU BKN150 BKN250
28/11 A3036 RMK AO2 WSHFT 1849 RAE00 CB DSNT N-NE TCU OHD-E-SE ACC
ALQDS VCSH SE-S P0000 T02830106





000
SAUS45 KABQ 231854
MTRCQC
METAR KCQC 231853Z AUTO 14012G19KT 10SM SCT055 27/12 A3049 RMK AO2
SLP216 T02720117





000
SAUS45 KABQ 231854
MTRTCS
METAR KTCS 231853Z AUTO VRB05KT 10SM FEW075 31/12 A3029 RMK AO2
SLP161 T03110122 TSNO





000
SAUS45 KABQ 231853
MTRABQ
METAR KABQ 231852Z 15014KT 10SM -RA FEW060 SCT110TCU BKN150 BKN250
28/13 A3037 RMK AO2 RAB33 SLP191 CB DSNT N-NE TCU OHD-E-SE ACC ALQDS
P0000 T02830128





000
SAUS45 KABQ 231754
MTRCQC
METAR KCQC 231753Z AUTO 16010KT 10SM SCT049 BKN065 BKN085 24/12
A3050 RMK AO2 SLP223 60000 T02440117 10267 20150 58004





000
SAUS45 KABQ 231754
MTRTCS
METAR KTCS 231753Z AUTO VRB05KT 10SM CLR 31/12 A3031 RMK AO2 SLP168
T03060122 10306 20206 58004 TSNO $





000
SAUS45 KABQ 231753
MTRABQ
METAR KABQ 231752Z 00000KT 10SM FEW070 SCT110 BKN140 BKN250 30/13
A3037 RMK AO2 SLP189 TCU DSNT N-NE AND W ACC OHD-E-SE VCSH E-SE
T03000128 10300 20206 58003





000
SAUS45 KABQ 231654
MTRCQC
METAR KCQC 231653Z AUTO 12008KT 10SM CLR 26/13 A3051 RMK AO2 SLP224
T02560128





000
SAUS45 KABQ 231654
MTRTCS
METAR KTCS 231653Z AUTO 00000KT 10SM CLR 29/12 A3032 RMK AO2 SLP173
T02890122 TSNO $





000
SAUS45 KABQ 231653
MTRABQ
METAR KABQ 231652Z VRB03KT 10SM FEW080 SCT100 SCT140 27/13 A3038 RMK
AO2 SLP200 TCU DSNT W ACC N-NE T02670128





000
SAUS45 KABQ 231554
MTRCQC
METAR KCQC 231553Z AUTO 15006KT 10SM FEW075 23/13 A3051 RMK AO2
SLP232 T02330128





000
SAUS45 KABQ 231554
MTRTCS
METAR KTCS 231553Z AUTO 06007KT 10SM CLR 28/12 A3032 RMK AO2 SLP176
T02780117 TSNO $





000
SAUS45 KABQ 231552
MTRABQ
METAR KABQ 231552Z 28003KT 10SM FEW090 SCT140 26/14 A3039 RMK AO2
SLP198 ACC NE T02610139





000
SAUS45 KABQ 231454
MTRCQC
METAR KCQC 231453Z AUTO 14004KT 10SM SCT055 SCT075 BKN100 21/13
A3051 RMK AO2 RAB01E12 SLP232 P0000 60000 T02060133 53012





000
SAUS45 KABQ 231454
MTRTCS
METAR KTCS 231453Z AUTO 05004KT CLR 26/13 A3032 RMK AO2 SLP180
T02560133 51010 TSNO $





000
SAUS45 KABQ 231452
MTRABQ
METAR KABQ 231452Z 32004KT 10SM FEW090 FEW130 24/14 A3038 RMK AO2
SLP208 T02440139 53009





000
SAUS45 KABQ 231354
MTRCQC
METAR KCQC 231353Z AUTO 13004KT 10SM SCT055 BKN070 BKN080 19/13
A3050 RMK AO2 SLP231 T01890133





000
SAUS45 KABQ 231354
MTRTCS
METAR KTCS 231353Z AUTO 32007KT 10SM CLR 24/13 A3031 RMK AO2 SLP174
T02390133 TSNO





000
SAUS45 KABQ 231352
MTRABQ
METAR KABQ 231352Z 33005KT 10SM FEW120 23/13 A3037 RMK AO2 SLP194
T02280128





000
SAUS45 KABQ 231254
MTRCQC
METAR KCQC 231253Z AUTO 07004KT 10SM FEW060 17/12 A3048 RMK AO2
SLP224 T01720122





000
SAUS45 KABQ 231254
MTRTCS
METAR KTCS 231253Z AUTO 29005KT 10SM CLR 21/14 A3030 RMK AO2 SLP174
T02110139 TSNO





000
SAUS45 KABQ 231159 COR
MTRCQC
METAR KCQC 231153Z AUTO 11006KT 10SM FEW055 SCT065 16/12 A3047 RMK
AO2 SLP229 70005 T01560117 10183 20150 50000





000
SAUS45 KABQ 231156 COR
MTRCQC
METAR KCQC 231153Z AUTO 11006KT 10SM FEW055 SCT065 16/12 A3047 RMK
AO2 SLP229 70005 T01560117 10183 20150 50000





000
SAUS45 KABQ 231155 COR
MTRCQC
METAR KCQC 231153Z AUTO 11006KT 10SM FEW055 SCT065 16/12 A3047 RMK
AO2 SLP229 70005 T01560117 10183 20150 50000





000
SAUS45 KABQ 231154
MTRCQC
METAR KCQC 231153Z AUTO 11006KT 10SM FEW055 SCT065 16/12 A3047 RMK
AO2 SLP229 70005 T01560117 10183 20150 50000





000
SAUS45 KABQ 231154
MTRTCS
METAR KTCS 231153Z AUTO 25005KT 10SM CLR 21/14 A3029 RMK AO2 SLP166
T02110144 10250 20211 53005 TSNO





000
SAUS45 KABQ 231054
MTRCQC
METAR KCQC 231053Z AUTO 09006KT 10SM SCT060 BKN075 16/12 A3047 RMK
AO2 SLP230 T01560117





000
SAUS45 KABQ 231054
MTRTCS
METAR KTCS 231053Z AUTO 27007KT 10SM SCT085 22/14 A3027 RMK AO2
SLP154 T02220144 TSNO





000
SAUS45 KABQ 231052
MTRABQ
METAR KABQ 231052Z 34004KT 10SM CLR 21/13 A3034 RMK AO2 SLP179
T02110133





000
SAUS45 KABQ 230954
MTRTCS
METAR KTCS 230953Z AUTO 22004KT 10SM FEW080 22/15 A3027 RMK AO2
SLP153 T02220150 TSNO





000
SAUS45 KABQ 230954
MTRCQC
METAR KCQC 230953Z AUTO 07006KT 10SM CLR 16/12 A3047 RMK AO2 SLP225
T01610117





000
SAUS45 KABQ 230953
MTRABQ
METAR KABQ 230952Z 33004KT 10SM CLR 22/13 A3035 RMK AO2 SLP179
T02170128





000
SAUS45 KABQ 230854
MTRCQC
METAR KCQC 230853Z AUTO 10007KT 10SM CLR 16/11 A3047 RMK AO2 SLP223
T01610106 50003





000
SAUS45 KABQ 230854
MTRTCS
METAR KTCS 230853Z AUTO 21006KT 10SM CLR 22/15 A3027 RMK AO2 SLP150
T02220150 58010 TSNO





000
SAUS45 KABQ 230853
MTRABQ
METAR KABQ 230852Z 31003KT 10SM CLR 22/13 A3034 RMK AO2 SLP174
T02220128 50004





000
SAUS45 KABQ 230754
MTRTCS
METAR KTCS 230753Z AUTO 26004KT 10SM CLR 23/14 A3028 RMK AO2 SLP155
T02330144 TSNO





000
SAUS45 KABQ 230754
MTRCQC
METAR KCQC 230753Z AUTO 09006KT 10SM CLR 17/11 A3047 RMK AO2 SLP215
T01720106





000
SAUS45 KABQ 230654
MTRTCS
METAR KTCS 230653Z AUTO 22008KT 10SM CLR 24/15 A3030 RMK AO2 SLP162
T02390150 403780228 TSNO





000
SAUS45 KABQ 230654
MTRCQC
METAR KCQC 230653Z AUTO 07006KT 10SM CLR 18/11 A3046 RMK AO2 SLP202
T01780111 403000156





000
SAUS45 KABQ 230652
MTRABQ
METAR KABQ 230652Z 05004KT 10SM SCT140 BKN200 24/13 A3034 RMK AO2
SLP176 T02390133 403560222





000
SAUS45 KABQ 230554
MTRCQC
METAR KCQC 230553Z AUTO 08006KT 10SM CLR 18/11 A3046 RMK AO2 SLP200
60002 T01830106 10222 20161 57007





000
SAUS45 KABQ 230554
MTRTCS
METAR KTCS 230553Z AUTO 28007KT 10SM CLR 25/14 A3030 RMK AO2 SLP161
T02500139 10311 20250 51011 TSNO





000
SAUS45 KABQ 230552
MTRABQ
METAR KABQ 230552Z 29006KT 10SM SCT140 BKN200 25/11 A3033 RMK AO2
SLP171 60010 T02500111 10322 20222 58012





000
SAUS45 KABQ 230455
MTRCQC
METAR KCQC 230453Z AUTO 16005KT 10SM CLR 19/09 A3046 RMK AO2 SLP203
T01890094





000
SAUS45 KABQ 230455
MTRTCS
METAR KTCS 230453Z AUTO 28010KT 10SM BKN120 26/13 A3030 RMK AO2
SLP162 T02560133 TSNO





000
SAUS45 KABQ 230452
MTRABQ
METAR KABQ 230452Z 12006KT 10SM FEW100 BKN140 OVC200 24/13 A3036 RMK
AO2 SLP187 T02390133





000
SAUS45 KABQ 230400 COR
MTRCQC
METAR KCQC 230353Z AUTO 34009KT 10SM FEW075 SCT120 17/11 A3048 RMK
AO2 PK WND 02040/0254 RAB18E41 SLP219 P0002 T01720106





000
SAUS45 KABQ 230400
MTRTCS
METAR KTCS 230353Z AUTO 27004KT 10SM CLR 26/14 A3030 RMK AO2 SLP164
T02560139 TSNO





000
SAUS45 KABQ 230356 COR
MTRCQC
METAR KCQC 230353Z AUTO 34009KT 10SM FEW075 SCT120 17/11 A3048 RMK
AO2 PK WND 02040/0254 RAB18E41 SLP219 P0002 T01720106





000
SAUS45 KABQ 230356 COR
MTRCQC
METAR KCQC 230353Z AUTO 34009KT 10SM FEW075 SCT120 17/11 A3048 RMK
AO2 PK WND 02040/0254 RAB18E41 SLP219 P0002 T01720106





000
SAUS45 KABQ 230355 COR
MTRCQC
METAR KCQC 230353Z AUTO 34009KT 10SM FEW075 SCT120 17/11 A3048 RMK
AO2 PK WND 02040/0254 RAB18E41 SLP219 P0002 T01720106





000
SAUS45 KABQ 230355 COR
MTRCQC
METAR KCQC 230353Z AUTO 34009KT 10SM FEW075 SCT120 17/11 A3048 RMK
AO2 PK WND 02040/0254 RAB18E41 SLP219 P0002 T01720106





000
SAUS45 KABQ 230354
MTRCQC
METAR KCQC 230353Z AUTO 34009KT 10SM FEW075 SCT120 17/11 A3048 RMK
AO2 PK WND 02040/0254 RAB18E41 SLP219 P0002 T01720106





000
SAUS45 KABQ 230354
MTRCQC
METAR KCQC 230353Z AUTO 34009KT 10SM FEW075 SCT120 17/11 A3048 RMK
AO2 PK WND 02040/0254 RAB18E41 SLP219 P0002 T01720106





000
SAUS45 KABQ 230353
MTRABQ
METAR KABQ 230352Z 13009KT 10SM SCT080 BKN110 OVC200 27/13 A3034 RMK
AO2 LTG DSNT E RAE44 TSE25 SLP176 CB DSNT E P0004 T02670128





000
SAUS45 KABQ 230353
MTRABQ
METAR KABQ 230352Z 13009KT 10SM SCT080 BKN110 OVC200 27/13 A3034 RMK
AO2 LTG DSNT E RAE44 TSE25 SLP176 CB DSNT E P0004 T02670128





000
SAUS45 KABQ 230326
MTRABQ
SPECI KABQ 230325Z 12011KT 10SM -RA FEW065 SCT080 BKN110 OVC200
26/13 A3035 RMK AO2 TSE25 P0004 T02610128





000
SAUS45 KABQ 230254
MTRCQC
METAR KCQC 230253Z AUTO 03017G24KT 10SM SCT050 20/11 A3048 RMK AO2
SLP218 T02000111 $





000
SAUS45 KABQ 230254
MTRTCS
METAR KTCS 230253Z AUTO 27010KT 10SM CLR 26/14 A3027 RMK AO2 SLP156
T02560144 51025 TSNO





000
SAUS45 KABQ 230253
MTRABQ
METAR KABQ 230252Z 05014G32KT 5SM +TSRA SCT080CB BKN110 OVC200 22/14
A3037 RMK AO2 PK WND 03033/0242 LTG DSNT E RAB0158E10B20 TSB40
SLP196 TS NW-NE MOV SW P0006 60006 T02220139 53040





000
SAUS45 KABQ 230242
MTRABQ
SPECI KABQ 230240Z COR 06016G26KT 10SM -TSRA SCT090CB BKN120 BKN200
28/11 A3035 RMK AO2 PK WND 06026/0237 RAB0158E10B20 TSB40 PRESRR TS
NW-N MOV SW P0000 T02780106





000
SAUS45 KABQ 230241
MTRABQ
SPECI KABQ 230240Z 06016G26KT 10SM -TSRA SCT090CB BKN120 BKN200
28/11 A3035 RMK AO2 PK WND 06026/0237 RAB0158E10B20 TSB40 PRESRR TS
NW-N MOV SW VCSH NW P0000 T02780106





000
SAUS45 KABQ 230217
MTRABQ
SPECI KABQ 230216Z 09014KT 10SM VCTS SCT090CB BKN120 BKN200 29/07
A3031 RMK AO2 LTG DSNT N AND NW RAB0158E10 PRESRR TS N MOV SW VCSH N
P0000 T02940067





000
SAUS45 KABQ 230154
MTRCQC
METAR KCQC 230153Z AUTO 04005KT 10SM CLR 21/11 A3045 RMK AO2 SLP211
T02110111 $





000
SAUS45 KABQ 230154
MTRTCS
METAR KTCS 230153Z AUTO 23011KT 10SM OVC100 27/14 A3025 RMK AO2
SLP149 T02720144 TSNO





000
SAUS45 KABQ 230153
MTRABQ
METAR KABQ 230152Z 11016KT 10SM FEW080 BKN120 BKN200 29/08 A3027 RMK
AO2 PK WND 14028/0126 LTG DSNT N-E SLP154 CB DSNT N-NE VIRGA NE
T02940078





000
SAUS45 KABQ 230055
MTRCQC
METAR KCQC 230053Z AUTO 03006KT 10SM CLR 22/14 A3042 RMK AO2 SLP204
T02220144





000
SAUS45 KABQ 230054
MTRTCS
METAR KTCS 230053Z AUTO 28014G21KT 10SM OVC100 29/11 A3022 RMK AO2
PK WND 06029/0000 SLP140 T02940111 TSNO





000
SAUS45 KABQ 230053
MTRABQ
METAR KABQ 230052Z 12015KT 10SM FEW080 SCT140 BKN200 31/08 A3024 RMK
AO2 SLP143 T03060078





000
SAUS45 KABQ 222358 COR
MTRCQC
METAR KCQC 222353Z AUTO 00000KT 10SM CLR 21/13 A3039 RMK AO2 SLP200
60003 T02060133 10300 20194 58006





000
SAUS45 KABQ 222356 COR
MTRCQC
METAR KCQC 222353Z AUTO 00000KT 10SM CLR 21/13 A3039 RMK AO2 SLP200
60003 T02060133 10300 20194 58006





000
SAUS45 KABQ 222355 COR
MTRCQC
METAR KCQC 222353Z AUTO 00000KT 10SM CLR 21/13 A3039 RMK AO2 SLP200
60003 T02060133 10300 20194 58006





000
SAUS45 KABQ 222354
MTRTCS
METAR KTCS 222353Z AUTO 07022G30KT 10SM CLR 31/11 A3018 RMK AO2 PK
WND 08037/2337 SLP125 T03110111 10378 20311 53010 TSNO





000
SAUS45 KABQ 222354
MTRCQC
METAR KCQC 222353Z AUTO 00000KT 10SM CLR 21/13 A3039 RMK AO2 SLP200
60003 T02060133 10300 20194 58006





000
SAUS45 KABQ 222352
MTRABQ
METAR KABQ 222352Z 09015G20KT 10SM FEW090 BKN140 BKN180 33/08 A3023
RMK AO2 SLP135 VIRGA SW T03280078 10356 20311 55000





000
SAUS45 KABQ 222258 COR
MTRCQC
METAR KCQC 222253Z AUTO 13005KT 10SM FEW048 FEW070 BKN100 21/13
A3040 RMK AO2 RAE2156B13E45 SLP200 P0000 T02060128





000
SAUS45 KABQ 222256 COR
MTRCQC
METAR KCQC 222253Z AUTO 13005KT 10SM FEW048 FEW070 BKN100 21/13
A3040 RMK AO2 RAE2156B13E45 SLP200 P0000 T02060128





000
SAUS45 KABQ 222255 COR
MTRCQC
METAR KCQC 222253Z AUTO 13005KT 10SM FEW048 FEW070 BKN100 21/13
A3040 RMK AO2 RAE2156B13E45 SLP200 P0000 T02060128





000
SAUS45 KABQ 222254
MTRTCS
METAR KTCS 222253Z AUTO 17017KT 10SM CLR 35/08 A3014 RMK AO2 SLP106
T03500078 TSNO





000
SAUS45 KABQ 222254
MTRCQC
METAR KCQC 222253Z AUTO 13005KT 10SM FEW048 FEW070 BKN100 21/13
A3040 RMK AO2 RAE2156B13E45 SLP200 P0000 T02060128





000
SAUS45 KABQ 222253
MTRABQ
METAR KABQ 222252Z 08018KT 10SM FEW080 SCT120 BKN160 34/07 A3022 RMK
AO2 PK WND 08032/2155 SLP130 VIRGA NW T03440067





000
SAUS45 KABQ 222201 COR
MTRCQC
METAR KCQC 222153Z AUTO 32010KT 10SM -RA FEW060 BKN090 OVC110 21/11
A3041 RMK AO2 PK WND 02036/2056 RAB16 SLP202 P0000 T02110106





000
SAUS45 KABQ 222159 COR
MTRCQC
METAR KCQC 222153Z AUTO 32010KT 10SM -RA FEW060 BKN090 OVC110 21/11
A3041 RMK AO2 PK WND 02036/2056 RAB16 SLP202 P0000 T02110106





000
SAUS45 KABQ 222158 COR
MTRCQC
METAR KCQC 222153Z AUTO 32010KT 10SM -RA FEW060 BKN090 OVC110 21/11
A3041 RMK AO2 PK WND 02036/2056 RAB16 SLP202 P0000 T02110106





000
SAUS45 KABQ 222156 COR
MTRCQC
METAR KCQC 222153Z AUTO 32010KT 10SM -RA FEW060 BKN090 OVC110 21/11
A3041 RMK AO2 PK WND 02036/2056 RAB16 SLP202 P0000 T02110106





000
SAUS45 KABQ 222155 COR
MTRCQC
METAR KCQC 222153Z AUTO 32010KT 10SM -RA FEW060 BKN090 OVC110 21/11
A3041 RMK AO2 PK WND 02036/2056 RAB16 SLP202 P0000 T02110106





000
SAUS45 KABQ 222154
MTRCQC
METAR KCQC 222153Z AUTO 32010KT 10SM -RA FEW060 BKN090 OVC110 21/11
A3041 RMK AO2 PK WND 02036/2056 RAB16 SLP202 P0000 T02110106





000
SAUS45 KABQ 222154
MTRTCS
METAR KTCS 222153Z AUTO 11018G27KT 10SM CLR 35/09 A3014 RMK AO2 PK
WND 11027/2147 SLP105 T03500089 TSNO





000
SAUS45 KABQ 222153
MTRABQ
METAR KABQ 222152Z 09027G35KT 10SM SCT110CB BKN160 33/09 A3022 RMK
AO2 PK WND 09036/2139 SLP131 VIRGA E CB E STNRY T03330089





000
SAUS45 KABQ 222126
MTRABQ
SPECI KABQ 222125Z 07014KT 10SM SCT110CB BKN160 34/09 A3023 RMK AO2
LTG DSNT NW VIRGA E CB NE-E MOV W T03390089





000
SAUS45 KABQ 222113
MTRABQ
SPECI KABQ 222112Z 25007KT 10SM VCTS SCT110CB BKN180 35/07 A3022 RMK
AO2 TS E MOV W VCSH E T03500072





000
SAUS45 KABQ 222104
MTRCQC
SPECI KCQC 222103Z AUTO 01014G36KT 10SM SQ OVC090 22/11 A3042 RMK
AO2 PK WND 02036/2056 T02170111





000
SAUS45 KABQ 222055
MTRTCS
METAR KTCS 222053Z AUTO VRB06KT 10SM CLR 37/06 A3014 RMK AO2 SLP102
T03670061 58019 TSNO





000
SAUS45 KABQ 222054
MTRCQC
METAR KCQC 222053Z AUTO 03011G24KT 10SM BKN085 OVC110 22/13 A3041
RMK AO2 RAE1957 SLP196 P0000 60003 T02220128





000
SAUS45 KABQ 222053
MTRABQ
METAR KABQ 222052Z 27006KT 10SM SCT110 SCT180 35/08 A3023 RMK AO2
SLP131 CB DSNT NE-E SHRA DSNT NE-E T03500083 58017





000
SAUS45 KABQ 222003 COR
MTRCQC
METAR KCQC 221953Z AUTO 06003KT 10SM -RA SCT050 SCT070 OVC100 24/10
A3040 RMK AO2 PK WND 03035/1927 WSHFT 1920 RAB05 SLP188 P0003
T02440100





000
SAUS45 KABQ 222002 COR
MTRCQC
METAR KCQC 221953Z AUTO 06003KT 10SM -RA SCT050 SCT070 OVC100 24/10
A3040 RMK AO2 PK WND 03035/1927 WSHFT 1920 RAB05 SLP188 P0003
T02440100





000
SAUS45 KABQ 222001 COR
MTRCQC
METAR KCQC 221953Z AUTO 06003KT 10SM -RA SCT050 SCT070 OVC100 24/10
A3040 RMK AO2 PK WND 03035/1927 WSHFT 1920 RAB05 SLP188 P0003
T02440100





000
SAUS45 KABQ 221959 COR
MTRCQC
METAR KCQC 221953Z AUTO 06003KT 10SM -RA SCT050 SCT070 OVC100 24/10
A3040 RMK AO2 PK WND 03035/1927 WSHFT 1920 RAB05 SLP188 P0003
T02440100





000
SAUS45 KABQ 221958 COR
MTRCQC
METAR KCQC 221953Z AUTO 06003KT 10SM -RA SCT050 SCT070 OVC100 24/10
A3040 RMK AO2 PK WND 03035/1927 WSHFT 1920 RAB05 SLP188 P0003
T02440100





000
SAUS45 KABQ 221956 COR
MTRCQC
METAR KCQC 221953Z AUTO 06003KT 10SM -RA SCT050 SCT070 OVC100 24/10
A3040 RMK AO2 PK WND 03035/1927 WSHFT 1920 RAB05 SLP188 P0003
T02440100





000
SAUS45 KABQ 221955 COR
MTRCQC
METAR KCQC 221953Z AUTO 06003KT 10SM -RA SCT050 SCT070 OVC100 24/10
A3040 RMK AO2 PK WND 03035/1927 WSHFT 1920 RAB05 SLP188 P0003
T02440100





000
SAUS45 KABQ 221954
MTRCQC
METAR KCQC 221953Z AUTO 06003KT 10SM -RA SCT050 SCT070 OVC100 24/10
A3040 RMK AO2 PK WND 03035/1927 WSHFT 1920 RAB05 SLP188 P0003
T02440100





000
SAUS45 KABQ 221954
MTRTCS
METAR KTCS 221953Z AUTO VRB06KT 10SM CLR 36/07 A3017 RMK AO2 SLP110
T03610067 TSNO





000
SAUS45 KABQ 221952
MTRABQ
METAR KABQ 221952Z 00000KT 10SM FEW100TCU SCT180 33/08 A3025 RMK AO2
SLP140 TCU E T03330083





000
SAUS45 KABQ 221945 COR
MTRCQC
SPECI KCQC 221940Z AUTO 30009G20KT 270V340 4SM RA 24/08 A3040 RMK
AO2 PK WND 03035/1927 WSHFT 1920 RAB05 P0002 T02390078 $





000
SAUS45 KABQ 221943 COR
MTRCQC
SPECI KCQC 221940Z AUTO 30009G20KT 270V340 4SM RA 24/08 A3040 RMK
AO2 PK WND 03035/1927 WSHFT 1920 RAB05 P0002 T02390078 $





000
SAUS45 KABQ 221942
MTRCQC
SPECI KCQC 221940Z AUTO 30009G20KT 270V340 4SM RA 24/08 A3040 RMK
AO2 PK WND 03035/1927 WSHFT 1920 RAB05 P0002 T02390078 $





000
SAUS45 KABQ 221942 COR
MTRCQC
SPECI KCQC 221940Z AUTO 30009G20KT 270V340 4SM RA 24/08 A3040 RMK
AO2 PK WND 03035/1927 WSHFT 1920 RAB05 P0002 T02390078 $





000
SAUS45 KABQ 221934
MTRCQC
SPECI KCQC 221933Z AUTO 05010G35KT 8SM RA SQ 24/11 A3041 RMK AO2 PK
WND 03035/1927 RAB05 P0000 T02390111 $





000
SAUS45 KABQ 221854
MTRCQC
METAR KCQC 221853Z AUTO 16010KT 120V190 10SM BKN085 28/08 A3038 RMK
AO2 SLP172 T02830083





000
SAUS45 KABQ 221854
MTRTCS
METAR KTCS 221853Z AUTO 02006KT 10SM CLR 36/07 A3019 RMK AO2 SLP118
T03610072 TSNO





000
SAUS45 KABQ 221852
MTRABQ
METAR KABQ 221852Z 36005KT 10SM FEW090 SCT150 SCT180 33/08 A3027 RMK
AO2 LTG DSNT SE SLP147 VCSH SE T03280083





000
SAUS45 KABQ 221801 COR
MTRCQC
METAR KCQC 221753Z AUTO 36007KT 10SM CLR 29/10 A3040 RMK AO2 SLP175
T02940100 10294 20156 50000





000
SAUS45 KABQ 221759 COR
MTRCQC
METAR KCQC 221753Z AUTO 36007KT 10SM CLR 29/10 A3040 RMK AO2 SLP175
T02940100 10294 20156 50000





000
SAUS45 KABQ 221758 COR
MTRCQC
METAR KCQC 221753Z AUTO 36007KT 10SM CLR 29/10 A3040 RMK AO2 SLP175
T02940100 10294 20156 50000





000
SAUS45 KABQ 221756 COR
MTRCQC
METAR KCQC 221753Z AUTO 36007KT 10SM CLR 29/10 A3040 RMK AO2 SLP175
T02940100 10294 20156 50000





000
SAUS45 KABQ 221755 COR
MTRCQC
METAR KCQC 221753Z AUTO 36007KT 10SM CLR 29/10 A3040 RMK AO2 SLP175
T02940100 10294 20156 50000





000
SAUS45 KABQ 221754
MTRCQC
METAR KCQC 221753Z AUTO 36007KT 10SM CLR 29/10 A3040 RMK AO2 SLP175
T02940100 10294 20156 50000





000
SAUS45 KABQ 221754
MTRTCS
METAR KTCS 221753Z AUTO VRB05KT 10SM CLR 34/08 A3021 RMK AO2 SLP125
T03440083 10350 20228 58006 TSNO





000
SAUS45 KABQ 221752
MTRABQ
METAR KABQ 221752Z 26005KT 10SM FEW090 SCT150 BKN180 32/09 A3029 RMK
AO2 SLP155 TCU DSNT E-SE T03170094 10328 20250 58001





000
SAUS45 KABQ 221654
MTRCQC
METAR KCQC 221653Z AUTO 34005KT 10SM CLR 28/11 A3041 RMK AO2 SLP183
T02780106





000
SAUS45 KABQ 221654
MTRTCS
METAR KTCS 221653Z AUTO 26003KT 10SM CLR 32/08 A3022 RMK AO2 SLP129
T03220078 TSNO





000
SAUS45 KABQ 221652
MTRABQ
METAR KABQ 221652Z 34004KT 10SM SCT150 BKN190 BKN300 31/10 A3029 RMK
AO2 SLP159 T03060100





000
SAUS45 KABQ 221554
MTRCQC
METAR KCQC 221553Z AUTO 29006KT 10SM CLR 25/13 A3040 RMK AO2 SLP181
T02500128





000
SAUS45 KABQ 221554
MTRTCS
METAR KTCS 221553Z AUTO 03006KT 10SM CLR 31/09 A3022 RMK AO2 SLP132
T03060094 TSNO





000
SAUS45 KABQ 221553
MTRABQ
METAR KABQ 221552Z 33007KT 10SM FEW150 FEW200 SCT300 29/11 A3029 RMK
AO2 SLP157 T02890106





000
SAUS45 KABQ 221454
MTRTCS
METAR KTCS 221453Z AUTO 02007KT 10SM CLR 28/09 A3023 RMK AO2 SLP136
T02780094 51013 TSNO





000
SAUS45 KABQ 221454
MTRCQC
METAR KCQC 221453Z AUTO 00000KT 10SM CLR 23/13 A3040 RMK AO2 SLP182
T02330128 53001





000
SAUS45 KABQ 221453
MTRABQ
METAR KABQ 221452Z 34008KT 10SM FEW150 FEW220 FEW300 27/11 A3029 RMK
AO2 SLP155 T02720106 53007





000
SAUS45 KABQ 221354
MTRCQC
METAR KCQC 221353Z AUTO 23008KT 10SM CLR 20/13 A3039 RMK AO2 SLP181
T02000133





000
SAUS45 KABQ 221354
MTRTCS
METAR KTCS 221353Z AUTO 32004KT 10SM CLR 27/09 A3021 RMK AO2 SLP132
T02670094 TSNO





000
SAUS45 KABQ 221353
MTRABQ
METAR KABQ 221352Z 34008KT 10SM SCT220 26/11 A3028 RMK AO2 SLP152
T02560111





000
SAUS45 KABQ 221254
MTRCQC
METAR KCQC 221253Z AUTO 00000KT 10SM CLR 17/13 A3040 RMK AO2 SLP191
T01670128





000
SAUS45 KABQ 221254
MTRTCS
METAR KTCS 221253Z AUTO 33004KT 10SM CLR 23/11 A3020 RMK AO2 SLP130
T02330106 TSNO





000
SAUS45 KABQ 221253
MTRABQ
METAR KABQ 221252Z 05003KT 10SM FEW160 BKN220 26/10 A3027 RMK AO2
SLP148 T02560100





000
SAUS45 KABQ 221154
MTRCQC
METAR KCQC 221153Z AUTO 11004KT 10SM SCT120 16/12 A3040 RMK AO2
SLP187 T01610122 10211 20161 52007





000
SAUS45 KABQ 221154
MTRTCS
METAR KTCS 221153Z AUTO 05006KT 10SM FEW120 23/11 A3019 RMK AO2
SLP124 T02280106 10289 20228 53010 TSNO





000
SAUS45 KABQ 221153
MTRABQ
METAR KABQ 221152Z 06003KT 10SM FEW140 BKN210 25/10 A3026 RMK AO2
SLP146 T02500100 10278 20244 53011





    US Dept of Commerce
    National Oceanic and Atmospheric Administration
    National Weather Service
    1325 East West Highway
    Silver Spring, MD 20910
    Page Author: NWS Internet Services Team
Disclaimer
Information Quality
Credits
Glossary
Privacy Policy
Freedom of Information Act (FOIA)
About Us
Career Opportunities